Time;durP1;ratioP1;P1;durP2;ratioP2;P2;SDS_P1;SDS_P2;PMS_P1;PMS_P2;Temp;Humidity;BMP_temperature;BMP_pressure;BME280_temperature;BME280_humidity;BME280_pressure;Samples;Min_cycle;Max_cycle;Signal;HPM_P1;HPM_P2
2023/10/29 12:38:49;;;;;;;1.67;0.93;;;21.10;79.30;;;;;;4995976;28;20538;-88
2023/10/29 12:41:18;;;;;;;1.73;0.90;;;21.10;80.00;;;;;;5019071;28;20489;-84
2023/10/29 12:43:47;;;;;;;2.67;1.13;;;21.10;80.30;;;;;;5018940;28;20462;-87
2023/10/29 12:46:15;;;;;;;5.70;1.03;;;21.10;80.30;;;;;;5014341;28;20970;-87
2023/10/29 12:49:01;;;;;;;3.87;1.00;;;21.10;80.40;;;;;;5014039;28;20497;-91
2023/10/29 12:51:30;;;;;;;2.80;1.10;;;21.10;80.40;;;;;;5014549;28;20471;-86
2023/10/29 12:54:12;;;;;;;3.20;1.00;;;21.10;80.40;;;;;;5014081;28;20438;-86
2023/10/29 12:56:52;;;;;;;2.80;1.30;;;21.10;80.60;;;;;;5014537;28;20434;-86
2023/10/29 12:59:31;;;;;;;4.10;1.20;;;21.10;80.50;;;;;;5013671;28;20454;-86
2023/10/29 13:01:59;;;;;;;3.10;1.43;;;21.10;80.80;;;;;;5017918;28;21020;-86
2023/10/29 13:04:27;;;;;;;8.70;1.80;;;21.10;81.00;;;;;;5018746;28;20443;-86
2023/10/29 13:06:55;;;;;;;3.17;1.23;;;21.00;81.30;;;;;;5013042;28;21034;-85
2023/10/29 13:09:25;;;;;;;2.87;1.53;;;21.10;81.40;;;;;;5013211;28;20766;-88
2023/10/29 13:11:52;;;;;;;6.07;1.60;;;21.00;81.40;;;;;;5013719;28;20439;-87
2023/10/29 13:14:22;;;;;;;6.07;1.83;;;21.10;82.50;;;;;;5013483;28;20453;-94
2023/10/29 13:16:50;;;;;;;2.60;1.23;;;21.10;81.70;;;;;;5013641;28;20938;-86
2023/10/29 13:19:17;;;;;;;3.10;1.20;;;21.00;81.50;;;;;;5010645;28;20494;-87
2023/10/29 13:21:44;;;;;;;3.27;1.40;;;21.00;81.60;;;;;;5012250;28;20472;-88
2023/10/29 13:24:11;;;;;;;7.00;1.30;;;21.00;81.60;;;;;;5020187;28;20453;-87
2023/10/29 13:26:41;;;;;;;8.30;1.70;;;21.00;81.60;;;;;;5021480;28;20447;-86
2023/10/29 13:29:08;;;;;;;4.00;1.20;;;21.00;81.70;;;;;;5013086;28;21082;-87
2023/10/29 13:31:34;;;;;;;3.93;1.00;;;21.00;81.70;;;;;;5012574;28;20454;-86
2023/10/29 13:34:01;;;;;;;2.70;0.93;;;21.00;81.70;;;;;;5021030;28;20449;-86
2023/10/29 13:36:28;;;;;;;5.60;1.13;;;21.00;81.70;;;;;;5032445;28;20456;-86
2023/10/29 13:38:55;;;;;;;1.70;1.30;;;21.00;81.80;;;;;;5032141;28;20474;-86
2023/10/29 13:41:22;;;;;;;4.07;1.67;;;21.00;81.90;;;;;;5032825;28;20448;-87
2023/10/29 13:43:51;;;;;;;2.93;1.10;;;21.00;81.70;;;;;;5033118;28;21365;-86
2023/10/29 13:46:17;;;;;;;1.53;1.00;;;21.10;81.90;;;;;;5032924;28;20453;-88
2023/10/29 13:48:45;;;;;;;4.50;1.87;;;21.10;81.40;;;;;;5032830;28;20986;-85
2023/10/29 13:51:12;;;;;;;2.27;1.00;;;21.00;81.20;;;;;;5032635;28;20556;-88
2023/10/29 13:53:39;;;;;;;1.57;0.90;;;21.10;81.40;;;;;;5032835;28;20483;-88
2023/10/29 13:56:08;;;;;;;2.17;1.00;;;21.00;81.30;;;;;;5022371;28;20447;-87
2023/10/29 13:58:35;;;;;;;2.90;1.00;;;21.00;81.10;;;;;;5018834;28;20468;-87
2023/10/29 14:01:04;;;;;;;6.50;0.93;;;21.00;81.10;;;;;;5018310;28;20465;-87
2023/10/29 14:03:31;;;;;;;3.70;1.23;;;21.00;81.10;;;;;;5028497;28;20446;-86
2023/10/29 14:05:58;;;;;;;3.33;1.20;;;21.00;81.10;;;;;;5027685;28;20445;-85
2023/10/29 14:08:25;;;;;;;9.23;1.30;;;21.00;81.10;;;;;;5014962;28;20492;-94
2023/10/29 14:10:52;;;;;;;2.43;0.93;;;21.00;81.10;;;;;;5013459;28;20442;-93
2023/10/29 14:13:19;;;;;;;1.00;0.77;;;21.00;81.10;;;;;;5013754;28;20447;-90
2023/10/29 14:16:11;;;;;;;1.80;1.40;;;21.00;81.10;;;;;;5000189;28;20444;-94
2023/10/29 14:18:38;;;;;;;5.27;1.07;;;21.00;81.40;;;;;;4995161;28;20530;-86
2023/10/29 14:21:04;;;;;;;4.50;1.63;;;21.00;81.30;;;;;;4993360;28;20456;-86
2023/10/29 14:23:31;;;;;;;4.50;1.40;;;21.00;81.60;;;;;;4993038;28;20454;-86
2023/10/29 14:25:58;;;;;;;6.83;1.40;;;21.00;81.80;;;;;;4993354;28;20940;-88
2023/10/29 14:28:25;;;;;;;2.23;1.20;;;21.00;82.40;;;;;;4993372;28;20571;-96
2023/10/29 14:30:52;;;;;;;2.60;1.20;;;20.90;81.80;;;;;;4993274;28;20961;-88
2023/10/29 14:33:21;;;;;;;4.67;1.30;;;20.90;81.70;;;;;;4991902;28;20804;-89
2023/10/29 14:35:54;;;;;;;9.10;1.20;;;21.00;81.70;;;;;;4991538;28;20444;-88
2023/10/29 14:38:22;;;;;;;3.03;1.23;;;20.90;82.00;;;;;;4994460;28;20541;-88
2023/10/29 14:40:51;;;;;;;3.77;1.10;;;20.90;81.70;;;;;;5014555;28;20446;-91
2023/10/29 14:43:20;;;;;;;5.80;1.23;;;20.90;81.70;;;;;;5014365;28;20816;-88
2023/10/29 14:45:48;;;;;;;3.97;1.30;;;20.90;81.80;;;;;;5015068;28;20450;-87
2023/10/29 14:48:18;;;;;;;8.10;1.20;;;20.90;81.70;;;;;;5017043;28;20482;-96
2023/10/29 14:50:46;;;;;;;5.53;1.20;;;20.90;81.70;;;;;;5017389;28;20973;-86
2023/10/29 14:53:13;;;;;;;2.90;1.40;;;20.90;81.80;;;;;;5018620;28;20446;-86
2023/10/29 14:55:45;;;;;;;4.87;1.10;;;20.90;81.70;;;;;;5016492;28;20466;-89
2023/10/29 14:58:12;;;;;;;1.93;1.17;;;20.90;81.90;;;;;;5017072;28;20443;-94
2023/10/29 15:00:41;;;;;;;2.40;1.00;;;20.90;82.10;;;;;;5016399;28;20431;-89
2023/10/29 15:03:08;;;;;;;7.50;1.40;;;20.90;81.90;;;;;;5016218;28;20526;-87
2023/10/29 15:05:39;;;;;;;5.30;1.40;;;20.90;81.90;;;;;;5024457;28;20419;-95
2023/10/29 15:08:07;;;;;;;1.30;1.10;;;20.90;81.90;;;;;;5021326;28;21112;-85
2023/10/29 15:10:34;;;;;;;3.00;0.90;;;20.90;81.60;;;;;;5018927;28;20525;-84
2023/10/29 15:13:01;;;;;;;4.70;0.90;;;20.90;81.50;;;;;;5015842;28;20798;-84
2023/10/29 15:15:30;;;;;;;6.93;1.60;;;21.00;81.90;;;;;;5016896;28;20438;-95
2023/10/29 15:17:57;;;;;;;3.90;1.57;;;20.90;81.80;;;;;;5016580;28;20449;-94
2023/10/29 15:20:32;;;;;;;4.07;1.10;;;20.90;81.70;;;;;;5015908;28;20545;-94
2023/10/29 15:23:00;;;;;;;3.40;1.20;;;20.90;81.50;;;;;;5027557;28;20481;-95
2023/10/29 15:25:28;;;;;;;4.33;1.27;;;20.90;81.50;;;;;;4999942;28;20452;-86
2023/10/29 15:27:55;;;;;;;5.17;1.50;;;20.90;81.40;;;;;;5015842;28;20834;-85
2023/10/29 15:30:22;;;;;;;3.13;1.10;;;21.00;81.70;;;;;;5015756;28;20438;-86
2023/10/29 15:32:50;;;;;;;6.40;1.40;;;20.90;81.70;;;;;;5015853;28;20445;-86
2023/10/29 15:35:17;;;;;;;2.90;1.23;;;21.00;81.90;;;;;;5016019;28;20463;-86
2023/10/29 15:37:43;;;;;;;2.30;1.23;;;20.90;81.70;;;;;;5016106;28;20441;-88
2023/10/29 15:40:11;;;;;;;1.97;1.10;;;21.00;82.70;;;;;;5015404;28;20469;-86
2023/10/29 15:42:39;;;;;;;4.37;1.20;;;20.90;81.70;;;;;;5015581;28;20439;-86
2023/10/29 15:45:07;;;;;;;3.73;0.97;;;20.90;81.80;;;;;;5015382;28;20438;-86
2023/10/29 15:47:33;;;;;;;2.23;1.30;;;20.90;81.60;;;;;;5015552;28;20446;-86
2023/10/29 15:50:00;;;;;;;3.30;1.00;;;20.90;81.60;;;;;;5014800;28;20438;-86
2023/10/29 15:52:27;;;;;;;2.20;0.87;;;21.00;81.70;;;;;;5015491;28;20461;-86
2023/10/29 15:54:54;;;;;;;1.20;1.00;;;20.90;81.50;;;;;;5015800;28;20445;-87
2023/10/29 15:57:23;;;;;;;2.53;0.97;;;20.90;81.50;;;;;;5017043;28;20445;-87
2023/10/29 15:59:51;;;;;;;1.20;0.90;;;20.90;81.60;;;;;;5015192;28;20454;-86
2023/10/29 16:02:17;;;;;;;1.10;0.80;;;21.00;81.70;;;;;;5015552;28;20442;-87
2023/10/29 16:04:44;;;;;;;4.07;0.90;;;20.90;81.50;;;;;;5017491;28;20534;-87
2023/10/29 16:07:11;;;;;;;3.20;1.40;;;20.90;81.60;;;;;;5015337;28;20546;-94
2023/10/29 16:09:38;;;;;;;2.00;1.10;;;20.90;81.40;;;;;;5017220;28;21012;-87
2023/10/29 16:12:08;;;;;;;1.20;1.03;;;20.90;81.30;;;;;;5017540;28;20446;-88
2023/10/29 16:14:34;;;;;;;1.70;0.90;;;20.90;81.30;;;;;;5018604;28;20506;-87
2023/10/29 16:17:03;;;;;;;1.87;0.97;;;20.90;81.30;;;;;;5017091;28;20942;-86
2023/10/29 16:19:30;;;;;;;1.73;0.80;;;20.90;81.30;;;;;;5015002;28;20547;-86
2023/10/29 16:21:57;;;;;;;1.20;0.80;;;20.80;81.30;;;;;;5014792;28;20459;-85
2023/10/29 16:24:24;;;;;;;2.27;1.07;;;20.80;81.10;;;;;;5015399;28;20789;-85
2023/10/29 16:26:51;;;;;;;1.93;0.90;;;20.80;81.00;;;;;;5018869;28;20526;-90
2023/10/29 16:29:18;;;;;;;6.57;2.13;;;20.80;81.10;;;;;;5019334;28;20490;-86
2023/10/29 16:31:45;;;;;;;1.40;0.87;;;20.90;81.30;;;;;;5016196;28;20805;-86
2023/10/29 16:34:13;;;;;;;1.50;0.90;;;20.90;81.10;;;;;;5017453;28;20453;-87
2023/10/29 16:36:40;;;;;;;1.20;0.80;;;20.90;81.20;;;;;;5014705;28;20448;-94
2023/10/29 16:39:07;;;;;;;1.50;0.80;;;20.80;81.00;;;;;;5014129;28;20485;-93
2023/10/29 16:41:36;;;;;;;2.47;1.00;;;20.80;81.10;;;;;;5014834;28;20534;-96
2023/10/29 16:49:53;;;;;;;1.83;0.80;;;20.90;81.30;;;;;;4984067;28;20490;-93
2023/10/29 16:52:20;;;;;;;2.50;0.90;;;20.80;81.10;;;;;;4999742;28;20833;-94
2023/10/29 16:54:47;;;;;;;1.40;0.87;;;20.80;80.90;;;;;;5016719;28;20485;-87
2023/10/29 16:57:14;;;;;;;2.23;0.90;;;20.80;80.90;;;;;;5016253;28;20449;-89
2023/10/29 16:59:41;;;;;;;1.50;1.00;;;20.80;81.00;;;;;;5019173;28;20439;-89
2023/10/29 17:02:07;;;;;;;1.77;0.90;;;20.80;81.30;;;;;;5020222;28;20559;-91
2023/10/29 17:04:35;;;;;;;2.60;0.90;;;20.80;81.20;;;;;;5013535;28;20439;-87
2023/10/29 17:07:04;;;;;;;1.73;1.00;;;20.80;81.30;;;;;;5013862;28;20450;-84
2023/10/29 17:09:31;;;;;;;1.67;0.90;;;20.80;81.10;;;;;;5017528;28;20497;-95
2023/10/29 17:11:57;;;;;;;1.90;0.90;;;20.80;81.10;;;;;;5014700;28;20450;-88
2023/10/29 17:14:24;;;;;;;4.80;1.03;;;20.80;80.80;;;;;;4992787;28;20514;-88
2023/10/29 17:16:51;;;;;;;4.00;0.90;;;20.80;80.90;;;;;;4994251;28;20512;-87
2023/10/29 17:19:18;;;;;;;1.90;0.97;;;20.80;80.90;;;;;;4993679;28;20447;-88
2023/10/29 17:21:45;;;;;;;1.40;1.10;;;20.80;81.20;;;;;;4998623;28;20470;-87
2023/10/29 17:24:13;;;;;;;1.20;0.80;;;20.90;81.50;;;;;;5003979;28;20454;-95
2023/10/29 17:26:40;;;;;;;7.13;0.90;;;20.80;81.50;;;;;;4996332;28;20450;-96
2023/10/29 17:29:08;;;;;;;1.47;0.83;;;20.80;81.40;;;;;;4992753;28;20522;-93
2023/10/29 17:31:35;;;;;;;2.70;1.10;;;20.90;81.60;;;;;;4993210;28;20448;-95
2023/10/29 17:34:01;;;;;;;1.23;0.93;;;20.80;81.30;;;;;;4993773;28;20953;-88
2023/10/29 17:36:28;;;;;;;1.67;1.03;;;20.80;81.20;;;;;;5004400;28;20441;-89
2023/10/29 17:38:55;;;;;;;1.10;0.90;;;20.80;81.30;;;;;;5012987;28;20570;-89
2023/10/29 17:41:23;;;;;;;2.20;0.80;;;20.80;81.30;;;;;;5013332;28;20439;-89
2023/10/29 17:43:51;;;;;;;1.13;0.80;;;20.80;81.50;;;;;;5013466;28;20946;-96
2023/10/29 17:46:18;;;;;;;1.70;0.90;;;20.80;81.70;;;;;;5012725;28;20450;-88
2023/10/29 17:48:46;;;;;;;1.17;0.80;;;20.80;81.40;;;;;;5012629;28;20492;-88
2023/10/29 17:51:13;;;;;;;2.10;1.20;;;20.80;81.50;;;;;;5013591;28;20999;-95
2023/10/29 17:53:44;;;;;;;5.30;1.00;;;20.80;81.50;;;;;;5013077;28;20435;-87
2023/10/29 17:56:11;;;;;;;1.77;0.97;;;20.80;81.10;;;;;;5013593;28;20448;-88
2023/10/29 17:58:40;;;;;;;1.20;0.80;;;20.80;81.40;;;;;;5012963;28;20474;-87
2023/10/29 18:01:07;;;;;;;3.77;0.80;;;20.80;81.40;;;;;;5013015;28;20442;-87
2023/10/29 18:03:34;;;;;;;1.13;0.80;;;20.80;81.50;;;;;;5013105;28;20437;-88
2023/10/29 18:06:11;;;;;;;1.20;0.90;;;20.80;81.50;;;;;;5013005;28;20529;-87
2023/10/29 18:08:37;;;;;;;2.80;0.90;;;20.80;81.50;;;;;;5013003;28;20543;-87
2023/10/29 18:11:04;;;;;;;3.10;1.10;;;20.80;81.70;;;;;;5014207;28;20483;-92
2023/10/29 18:13:33;;;;;;;2.13;1.00;;;20.80;81.50;;;;;;5007374;28;20534;-86
2023/10/29 18:16:01;;;;;;;5.30;0.90;;;20.80;81.30;;;;;;5022249;28;20465;-86
2023/10/29 18:18:28;;;;;;;6.50;0.90;;;20.80;80.90;;;;;;5017616;28;20461;-86
2023/10/29 18:20:54;;;;;;;1.03;0.80;;;20.80;81.00;;;;;;5016609;28;20474;-86
2023/10/29 18:23:21;;;;;;;1.50;1.00;;;20.80;81.10;;;;;;5015014;28;20443;-86
2023/10/29 18:25:48;;;;;;;3.00;1.10;;;20.80;81.50;;;;;;5014488;28;20960;-86
2023/10/29 18:28:16;;;;;;;1.50;0.70;;;20.80;81.50;;;;;;5014896;28;20784;-86
2023/10/29 18:30:44;;;;;;;2.00;1.10;;;20.80;81.60;;;;;;5014769;28;20494;-86
2023/10/29 18:33:12;;;;;;;2.07;0.93;;;20.80;81.80;;;;;;5014684;28;20473;-94
2023/10/29 18:35:39;;;;;;;2.50;0.80;;;20.80;81.70;;;;;;5015004;28;20439;-87
2023/10/29 18:38:06;;;;;;;1.87;0.90;;;20.80;81.80;;;;;;5014723;28;20439;-86
2023/10/29 18:40:34;;;;;;;2.33;0.70;;;20.80;81.70;;;;;;5014713;28;20553;-95
2023/10/29 18:43:02;;;;;;;1.60;0.80;;;20.80;81.70;;;;;;5014960;28;20450;-86
2023/10/29 18:45:28;;;;;;;2.73;0.80;;;20.80;81.70;;;;;;5015261;28;20449;-86
2023/10/29 18:47:56;;;;;;;1.00;0.60;;;20.80;81.70;;;;;;5015159;28;20443;-95
2023/10/29 18:50:24;;;;;;;2.83;1.10;;;20.80;81.70;;;;;;5014936;28;20494;-95
2023/10/29 18:52:50;;;;;;;1.43;0.70;;;20.70;81.60;;;;;;5016377;28;20525;-86
2023/10/29 18:55:17;;;;;;;1.00;0.70;;;20.80;81.90;;;;;;5016088;28;21037;-87
2023/10/29 18:57:44;;;;;;;1.00;0.70;;;20.70;81.50;;;;;;5015987;28;20442;-86
2023/10/29 19:00:11;;;;;;;2.43;1.00;;;20.70;81.50;;;;;;5016109;28;20446;-86
2023/10/29 19:02:38;;;;;;;1.73;0.80;;;20.70;81.70;;;;;;5015994;28;20856;-87
2023/10/29 19:05:06;;;;;;;1.53;0.90;;;20.70;81.50;;;;;;5016089;28;20438;-86
2023/10/29 19:07:34;;;;;;;1.20;0.70;;;20.70;81.70;;;;;;5015822;28;20799;-86
2023/10/29 19:10:01;;;;;;;1.00;0.70;;;20.80;81.80;;;;;;5015930;28;20494;-87
2023/10/29 19:12:28;;;;;;;1.27;0.90;;;20.80;81.90;;;;;;5015981;28;20815;-86
2023/10/29 19:14:54;;;;;;;1.00;0.70;;;20.70;81.60;;;;;;5015871;28;20465;-86
2023/10/29 19:17:21;;;;;;;1.50;0.80;;;20.80;81.60;;;;;;5015690;28;20452;-96
2023/10/29 19:19:48;;;;;;;1.30;0.80;;;20.80;81.80;;;;;;5015618;28;20969;-86
2023/10/29 19:22:16;;;;;;;1.20;0.90;;;20.70;81.90;;;;;;5015689;28;20798;-86
2023/10/29 19:24:44;;;;;;;1.20;0.80;;;20.80;81.90;;;;;;5014273;28;20447;-87
2023/10/29 19:27:12;;;;;;;2.07;1.03;;;20.80;81.60;;;;;;5015349;28;20435;-86
2023/10/29 19:29:39;;;;;;;1.73;0.80;;;20.70;81.60;;;;;;5015504;28;20489;-87
2023/10/29 19:32:07;;;;;;;1.10;0.70;;;20.70;81.90;;;;;;5015433;28;20446;-87
2023/10/29 19:34:34;;;;;;;1.30;0.90;;;20.70;81.80;;;;;;5015308;28;20450;-85
2023/10/29 19:37:00;;;;;;;1.10;0.90;;;20.70;81.70;;;;;;5017562;28;20453;-86
2023/10/29 19:39:27;;;;;;;1.10;0.80;;;20.70;81.00;;;;;;5018583;28;20468;-92
2023/10/29 19:41:55;;;;;;;2.17;0.80;;;20.70;81.10;;;;;;5035151;28;20448;-85
2023/10/29 19:44:22;;;;;;;1.63;1.10;;;20.70;81.90;;;;;;5034982;28;20437;-85
2023/10/29 19:46:50;;;;;;;1.20;0.80;;;20.70;81.50;;;;;;5034960;28;20449;-85
2023/10/29 19:49:16;;;;;;;1.20;0.70;;;20.70;81.90;;;;;;5034805;28;20485;-85
2023/10/29 19:51:43;;;;;;;1.00;0.77;;;20.80;81.40;;;;;;5029088;28;20470;-85
2023/10/29 19:54:10;;;;;;;1.60;0.80;;;20.70;81.40;;;;;;5015022;28;20447;-85
2023/10/29 19:56:37;;;;;;;1.53;1.07;;;20.70;81.30;;;;;;5014940;28;20442;-85
2023/10/29 19:59:05;;;;;;;1.23;1.10;;;20.80;81.40;;;;;;5015023;28;20445;-85
2023/10/29 20:01:32;;;;;;;1.60;0.80;;;20.80;81.60;;;;;;5014728;28;20438;-86
2023/10/29 20:03:58;;;;;;;2.97;0.77;;;20.80;81.30;;;;;;5014934;28;20474;-85
2023/10/29 20:06:26;;;;;;;1.20;0.70;;;20.80;81.40;;;;;;5014814;28;20446;-85
2023/10/29 20:08:52;;;;;;;1.90;0.80;;;20.80;81.50;;;;;;5014606;28;20436;-93
2023/10/29 20:11:19;;;;;;;1.20;1.03;;;20.80;81.10;;;;;;5014741;28;20442;-85
2023/10/29 20:13:49;;;;;;;1.57;0.73;;;20.80;81.10;;;;;;5018301;28;20454;-85
2023/10/29 20:16:17;;;;;;;1.23;0.70;;;20.80;81.00;;;;;;5031673;28;20456;-85
2023/10/29 20:18:44;;;;;;;1.10;0.70;;;20.80;81.00;;;;;;5034303;28;20452;-86
2023/10/29 20:21:12;;;;;;;1.23;0.83;;;20.80;80.90;;;;;;5029440;28;20482;-85
2023/10/29 20:23:39;;;;;;;1.73;1.03;;;20.80;80.90;;;;;;5014311;28;20437;-85
2023/10/29 20:26:12;;;;;;;1.13;0.70;;;20.80;80.90;;;;;;5021321;28;20446;-95
2023/10/29 20:28:39;;;;;;;1.60;1.00;;;20.80;81.00;;;;;;5034065;28;20451;-85
2023/10/29 20:31:06;;;;;;;1.50;0.80;;;20.80;80.90;;;;;;5022489;28;20996;-85
2023/10/29 20:33:34;;;;;;;1.50;0.70;;;20.80;80.90;;;;;;5014385;28;20769;-85
2023/10/29 20:36:01;;;;;;;2.60;0.93;;;20.90;81.00;;;;;;5013922;28;20461;-86
2023/10/29 20:38:28;;;;;;;1.27;1.10;;;20.90;81.00;;;;;;5014006;28;21007;-85
2023/10/29 20:40:54;;;;;;;1.63;0.80;;;20.90;81.10;;;;;;5014171;28;20438;-85
2023/10/29 20:43:21;;;;;;;1.27;0.80;;;20.80;81.00;;;;;;5014360;28;20441;-85
2023/10/29 20:45:51;;;;;;;1.10;0.70;;;20.80;80.90;;;;;;5021370;28;20441;-86
2023/10/29 20:48:18;;;;;;;3.77;0.80;;;20.80;80.90;;;;;;5017979;28;20458;-85
2023/10/29 20:50:52;;;;;;;4.00;0.70;;;20.90;81.00;;;;;;5033639;28;20493;-85
2023/10/29 20:53:18;;;;;;;0.93;0.67;;;20.90;81.00;;;;;;5033705;28;20469;-85
2023/10/29 20:55:45;;;;;;;2.03;0.90;;;20.90;81.00;;;;;;5033769;28;20522;-85
2023/10/29 20:58:12;;;;;;;1.10;0.80;;;20.90;81.00;;;;;;5021321;28;20489;-85
2023/10/29 21:00:39;;;;;;;1.10;0.80;;;20.90;80.90;;;;;;5024308;28;21020;-86
2023/10/29 21:03:06;;;;;;;1.57;0.80;;;20.90;81.00;;;;;;5022292;28;20447;-85
2023/10/29 21:05:34;;;;;;;1.10;0.80;;;20.90;80.90;;;;;;5013650;28;20540;-86
2023/10/29 21:08:02;;;;;;;1.27;0.87;;;20.90;80.90;;;;;;5016042;28;20490;-87
2023/10/29 21:10:30;;;;;;;1.97;1.00;;;21.00;81.10;;;;;;5022193;28;20494;-86
2023/10/29 21:12:58;;;;;;;5.10;0.80;;;20.90;81.00;;;;;;5013690;28;20446;-86
2023/10/29 21:15:25;;;;;;;1.10;0.80;;;20.90;80.90;;;;;;5013794;28;20934;-95
2023/10/29 21:17:52;;;;;;;1.40;0.80;;;20.90;80.90;;;;;;5013455;28;21071;-87
2023/10/29 21:20:19;;;;;;;1.20;0.80;;;20.90;80.80;;;;;;5013557;28;20464;-86
2023/10/29 21:22:46;;;;;;;2.30;0.70;;;20.90;80.90;;;;;;5012961;28;20452;-87
2023/10/29 21:25:14;;;;;;;1.83;0.80;;;21.00;81.00;;;;;;5013486;28;20442;-95
2023/10/29 21:27:42;;;;;;;0.97;0.77;;;20.90;81.00;;;;;;5014472;28;20453;-87
2023/10/29 21:30:10;;;;;;;2.90;0.80;;;20.90;81.00;;;;;;5017937;28;20599;-86
2023/10/29 21:32:36;;;;;;;1.10;0.70;;;20.80;81.40;;;;;;5013461;28;20448;-95
2023/10/29 21:35:04;;;;;;;1.10;0.70;;;20.90;81.70;;;;;;5013319;28;20449;-86
2023/10/29 21:37:30;;;;;;;1.50;0.87;;;20.80;81.60;;;;;;5027647;28;20524;-87
2023/10/29 21:39:57;;;;;;;1.60;0.90;;;20.90;82.30;;;;;;5013329;28;20478;-87
2023/10/29 21:42:25;;;;;;;1.60;0.90;;;20.80;81.30;;;;;;5013271;28;20442;-87
2023/10/29 21:44:52;;;;;;;1.07;0.80;;;20.80;82.00;;;;;;5013354;28;20802;-86
2023/10/29 21:47:19;;;;;;;1.30;0.80;;;20.80;81.70;;;;;;5013155;28;20442;-86
2023/10/29 21:49:48;;;;;;;1.20;0.90;;;20.80;82.00;;;;;;5016539;28;20521;-86
2023/10/29 21:52:15;;;;;;;1.00;0.73;;;20.80;82.00;;;;;;5017283;28;20446;-86
2023/10/29 21:54:45;;;;;;;1.27;0.83;;;20.80;82.30;;;;;;5017148;28;20504;-86
2023/10/29 21:57:12;;;;;;;0.90;0.60;;;20.80;82.00;;;;;;5016529;28;20541;-86
2023/10/29 21:59:40;;;;;;;1.10;0.80;;;20.80;81.80;;;;;;5025438;28;20450;-86
2023/10/29 22:02:07;;;;;;;1.00;0.70;;;20.80;81.80;;;;;;5033953;28;20940;-86
2023/10/29 22:04:34;;;;;;;1.93;0.77;;;20.80;81.60;;;;;;5036571;28;20800;-95
2023/10/29 22:07:00;;;;;;;1.07;0.73;;;20.80;82.00;;;;;;5036906;28;20544;-87
2023/10/29 22:09:27;;;;;;;4.63;0.90;;;20.80;81.80;;;;;;5036785;28;20799;-86
2023/10/29 22:11:54;;;;;;;1.10;0.90;;;20.90;81.90;;;;;;5036789;28;20915;-86
2023/10/29 22:14:20;;;;;;;1.23;0.80;;;20.80;82.30;;;;;;5036821;28;20445;-86
2023/10/29 22:16:48;;;;;;;1.03;0.80;;;20.80;82.40;;;;;;5036626;28;20461;-87
2023/10/29 22:19:15;;;;;;;1.30;0.80;;;20.80;81.70;;;;;;5036613;28;20202;-86
2023/10/29 22:21:41;;;;;;;1.00;0.70;;;20.70;82.10;;;;;;5036509;28;20444;-86
2023/10/29 22:24:09;;;;;;;1.97;0.80;;;20.80;82.20;;;;;;5036677;28;20447;-87
2023/10/29 22:26:37;;;;;;;1.20;0.90;;;20.70;81.50;;;;;;5036471;28;20466;-95
2023/10/29 22:29:04;;;;;;;1.00;0.70;;;20.70;81.50;;;;;;5027381;28;20447;-86
2023/10/29 22:31:31;;;;;;;1.10;0.77;;;20.80;81.70;;;;;;5028412;28;20485;-87
2023/10/29 22:33:59;;;;;;;1.20;0.70;;;20.80;81.80;;;;;;5017109;28;20446;-86
2023/10/29 22:36:26;;;;;;;1.60;0.80;;;20.80;81.70;;;;;;5022100;28;20457;-87
2023/10/29 22:38:53;;;;;;;1.30;0.80;;;20.70;81.30;;;;;;5016435;28;20482;-86
2023/10/29 22:41:20;;;;;;;1.20;0.80;;;20.80;81.70;;;;;;5016492;28;20440;-86
2023/10/29 22:43:46;;;;;;;1.30;0.73;;;20.70;81.40;;;;;;5016356;28;20441;-86
2023/10/29 22:46:18;;;;;;;1.20;0.80;;;20.80;81.90;;;;;;5016343;28;20441;-87
2023/10/29 22:48:44;;;;;;;2.47;0.80;;;20.70;81.30;;;;;;5016304;28;21007;-95
2023/10/29 22:51:13;;;;;;;1.07;0.70;;;20.70;81.10;;;;;;5015886;28;21017;-86
2023/10/29 22:53:39;;;;;;;2.40;1.00;;;20.80;81.50;;;;;;5025039;28;20453;-86
2023/10/29 22:56:07;;;;;;;1.83;1.10;;;20.70;81.60;;;;;;5027236;28;20540;-86
2023/10/29 22:58:33;;;;;;;1.97;1.00;;;20.70;81.30;;;;;;5035973;28;20432;-95
2023/10/29 23:01:02;;;;;;;1.30;0.80;;;20.70;81.50;;;;;;5035756;28;20437;-94
2023/10/29 23:03:29;;;;;;;1.10;0.80;;;20.70;81.40;;;;;;5035702;28;20843;-86
2023/10/29 23:05:56;;;;;;;1.10;0.80;;;20.70;82.00;;;;;;5035696;28;20437;-86
2023/10/29 23:08:24;;;;;;;1.70;0.80;;;20.70;81.00;;;;;;5034789;28;20524;-86
2023/10/29 23:10:51;;;;;;;1.10;0.90;;;20.70;81.40;;;;;;5031748;28;20853;-94
2023/10/29 23:13:18;;;;;;;2.37;0.90;;;20.70;81.00;;;;;;5026864;28;20453;-86
2023/10/29 23:15:45;;;;;;;1.10;0.70;;;20.70;81.10;;;;;;5035622;28;20508;-96
2023/10/29 23:18:12;;;;;;;1.10;0.80;;;20.70;80.90;;;;;;5035465;28;20445;-86
2023/10/29 23:20:38;;;;;;;1.03;0.70;;;20.70;80.80;;;;;;5035347;28;20472;-86
2023/10/29 23:23:07;;;;;;;1.20;0.80;;;20.70;81.10;;;;;;5035536;28;20449;-86
2023/10/29 23:25:35;;;;;;;1.80;1.00;;;20.70;81.20;;;;;;5035571;28;20857;-86
2023/10/29 23:28:02;;;;;;;1.37;0.87;;;20.70;81.00;;;;;;5035232;28;20928;-86
2023/10/29 23:30:29;;;;;;;1.17;0.77;;;20.70;80.60;;;;;;5035233;28;20484;-86
2023/10/29 23:32:56;;;;;;;1.00;0.70;;;20.70;81.40;;;;;;5035158;28;20445;-86
2023/10/29 23:35:23;;;;;;;1.87;0.90;;;20.70;80.80;;;;;;5027070;28;20826;-87
2023/10/29 23:37:49;;;;;;;1.60;0.70;;;20.70;80.50;;;;;;5022076;28;20456;-86
2023/10/29 23:40:16;;;;;;;1.30;0.90;;;20.70;80.50;;;;;;5034943;28;20576;-86
2023/10/29 23:42:44;;;;;;;1.60;1.03;;;20.70;80.60;;;;;;5035012;28;20458;-86
2023/10/29 23:45:11;;;;;;;1.60;0.97;;;20.70;80.40;;;;;;5034879;28;20440;-87
2023/10/29 23:47:39;;;;;;;2.13;0.70;;;20.70;80.50;;;;;;5035002;28;20438;-86
2023/10/29 23:50:06;;;;;;;1.00;0.70;;;20.70;80.40;;;;;;5034824;28;20487;-86
2023/10/29 23:52:33;;;;;;;1.33;0.80;;;20.70;80.50;;;;;;5034752;28;20439;-86
2023/10/29 23:55:00;;;;;;;1.10;0.80;;;20.80;80.60;;;;;;5034892;28;20457;-87
2023/10/29 23:57:27;;;;;;;1.03;0.80;;;20.80;80.70;;;;;;5034732;28;20436;-86
2023/10/29 23:59:56;;;;;;;1.13;0.80;;;20.70;80.30;;;;;;5034729;28;20496;-87
